Observations for CAMBRIDGE, United Kingdom (EGSC)

EGSC 171750Z 20004KT 9999 SCT042 07/01 Q1022
EGSC 171720Z 21004KT 9999 SCT042 07/01 Q1022
EGSC 171650Z 21005KT 9999 SCT042 08/00 Q1021
EGSC 171620Z 20008KT 9999 FEW042 09/00 Q1021
EGSC 171550Z 20007KT 9999 FEW039 10/01 Q1021
EGSC 171520Z 21007KT 180V260 9999 SCT039 09/01 Q1021
EGSC 171450Z 21007KT 9999 FEW040 09/01 Q1022
EGSC 171420Z 22007KT 160V250 9999 FEW038 10/01 Q1022
EGSC 171350Z 21009KT 180V240 9999 FEW035 10/01 Q1022
EGSC 171320Z 20008KT 170V230 9999 FEW033 09/01 Q1022
EGSC 171250Z 19010KT 9999 FEW033 09/01 Q1022
EGSC 171220Z 18011KT CAVOK 09/02 Q1022  
EGSC 171150Z 17010KT 9999 FEW035 09/02 Q1022
EGSC 171120Z 19010KT 9999 FEW035 08/03 Q1022
EGSC 171050Z 20008KT CAVOK 07/03 Q1022  
EGSC 171020Z 19007KT CAVOK 06/03 Q1022  
EGSC 170950Z 17006KT CAVOK 05/03 Q1022  
EGSC 170920Z VRB02KT CAVOK 03/02 Q1022  
EGSC 170850Z 15003KT 9000 FEW035 01/01 Q1022
EGSC 170820Z VRB02KT 9000 FEW035 01/01 Q1021
EGSC 170750Z VRB02KT 9000 FEW028 01/00 Q1022